Time;durP1;ratioP1;P1;durP2;ratioP2;P2;SDS_P1;SDS_P2;PMS_P1;PMS_P2;Temp;Humidity;BMP_temperature;BMP_pressure;BME280_temperature;BME280_humidity;BME280_pressure;Samples;Min_cycle;Max_cycle;Signal;HPM_P1;HPM_P2
2021/07/29 00:00:39;;;;;;;3.40;2.37;;;;;;;;;;5032516;28;20524;-67
2021/07/29 00:03:06;;;;;;;5.03;2.50;;;;;;;;;;5031774;28;20763;-68
2021/07/29 00:05:33;;;;;;;3.20;2.30;;;;;;;;;;5032322;28;20439;-67
2021/07/29 00:07:59;;;;;;;3.67;2.20;;;;;;;;;;5031381;28;20447;-67
2021/07/29 00:10:26;;;;;;;5.00;2.83;;;;;;;;;;5032434;28;20898;-67
2021/07/29 00:12:52;;;;;;;4.40;2.57;;;;;;;;;;5032012;28;20953;-68
2021/07/29 00:15:18;;;;;;;5.57;2.50;;;;;;;;;;5032879;28;20403;-68
2021/07/29 00:20:13;;;;;;;3.30;2.50;;;;;;;;;;5030498;28;20458;-68
2021/07/29 00:22:39;;;;;;;3.43;2.50;;;;;;;;;;5031362;28;20427;-67
2021/07/29 00:25:12;;;;;;;3.50;2.50;;;;;;;;;;5032178;28;20421;-67
2021/07/29 00:27:38;;;;;;;6.27;2.57;;;;;;;;;;5031346;28;20426;-67
2021/07/29 00:30:05;;;;;;;3.03;2.13;;;;;;;;;;5032156;28;20403;-67
2021/07/29 00:32:31;;;;;;;3.20;2.30;;;;;;;;;;5031639;28;20422;-68
2021/07/29 00:34:57;;;;;;;2.63;2.10;;;;;;;;;;5031832;28;20407;-67
2021/07/29 00:37:23;;;;;;;4.60;2.60;;;;;;;;;;5031394;28;20476;-68
2021/07/29 00:39:49;;;;;;;3.37;2.20;;;;;;;;;;5034714;28;20488;-67
2021/07/29 00:42:15;;;;;;;3.27;2.37;;;;;;;;;;5034966;28;20407;-67
2021/07/29 00:44:41;;;;;;;3.30;2.23;;;;;;;;;;5034721;28;20422;-68
2021/07/29 00:47:08;;;;;;;4.10;3.00;;;;;;;;;;5034741;28;20867;-67
2021/07/29 00:49:34;;;;;;;3.80;2.90;;;;;;;;;;5035487;28;20434;-67
2021/07/29 00:52:01;;;;;;;3.13;2.37;;;;;;;;;;5035618;28;20399;-67
2021/07/29 00:54:30;;;;;;;5.67;3.17;;;;;;;;;;5034743;28;20500;-67
2021/07/29 00:56:57;;;;;;;5.20;3.30;;;;;;;;;;5035677;28;20429;-67
2021/07/29 00:59:23;;;;;;;5.87;3.40;;;;;;;;;;5034820;28;20446;-67
2021/07/29 01:01:49;;;;;;;5.13;3.13;;;;;;;;;;5035412;28;20465;-67
2021/07/29 01:04:15;;;;;;;6.20;2.50;;;;;;;;;;5034488;28;20426;-66
2021/07/29 01:06:41;;;;;;;4.10;2.80;;;;;;;;;;5031062;28;20451;-67
2021/07/29 01:09:09;;;;;;;4.50;2.67;;;;;;;;;;5023831;28;20459;-66
2021/07/29 01:11:38;;;;;;;7.63;3.43;;;;;;;;;;5015488;28;20404;-67
2021/07/29 01:14:04;;;;;;;6.40;3.30;;;;;;;;;;5014225;28;20510;-67
2021/07/29 01:16:30;;;;;;;3.67;2.87;;;;;;;;;;5013827;28;20411;-67
2021/07/29 01:18:57;;;;;;;3.30;2.67;;;;;;;;;;5024034;28;20576;-67
2021/07/29 01:21:25;;;;;;;3.97;2.50;;;;;;;;;;5034730;28;20483;-67
2021/07/29 01:23:51;;;;;;;3.57;2.57;;;;;;;;;;5033846;28;20422;-66
2021/07/29 01:26:17;;;;;;;3.30;2.50;;;;;;;;;;5033623;28;20411;-66
2021/07/29 01:28:43;;;;;;;3.47;2.40;;;;;;;;;;5033923;28;20443;-66
2021/07/29 01:31:09;;;;;;;8.53;2.33;;;;;;;;;;5034611;28;20403;-66
2021/07/29 01:33:36;;;;;;;5.00;2.87;;;;;;;;;;5033651;28;20430;-66
2021/07/29 01:36:02;;;;;;;4.13;2.53;;;;;;;;;;5034584;28;20461;-66
2021/07/29 01:38:29;;;;;;;11.20;3.20;;;;;;;;;;5032548;28;20447;-66
2021/07/29 01:40:55;;;;;;;4.60;2.70;;;;;;;;;;5034444;28;20450;-66
2021/07/29 01:43:21;;;;;;;6.83;2.73;;;;;;;;;;5033891;28;20430;-66
2021/07/29 01:45:47;;;;;;;5.23;2.73;;;;;;;;;;5033669;28;20430;-67
2021/07/29 01:48:13;;;;;;;3.20;2.27;;;;;;;;;;5033677;28;20445;-66
2021/07/29 01:50:39;;;;;;;4.17;2.60;;;;;;;;;;5033803;28;20441;-66
2021/07/29 01:53:05;;;;;;;3.30;2.30;;;;;;;;;;5033194;28;20417;-66
2021/07/29 01:55:31;;;;;;;3.40;2.60;;;;;;;;;;5034237;28;20855;-66
2021/07/29 01:57:57;;;;;;;4.40;2.97;;;;;;;;;;5033805;28;20506;-67
2021/07/29 02:00:23;;;;;;;5.40;2.73;;;;;;;;;;5033675;28;20462;-66
2021/07/29 02:02:50;;;;;;;3.33;2.57;;;;;;;;;;5033250;28;20426;-66
2021/07/29 02:05:16;;;;;;;3.13;2.43;;;;;;;;;;5033519;28;20532;-66
2021/07/29 02:07:42;;;;;;;5.40;2.90;;;;;;;;;;5034071;28;20866;-66
2021/07/29 02:10:08;;;;;;;3.77;2.20;;;;;;;;;;5033127;28;20938;-66
2021/07/29 02:12:34;;;;;;;4.00;2.80;;;;;;;;;;5033899;28;20410;-66
2021/07/29 02:15:01;;;;;;;4.10;2.80;;;;;;;;;;5033076;28;20422;-66
2021/07/29 02:17:27;;;;;;;5.87;2.60;;;;;;;;;;5033795;28;20422;-66
2021/07/29 02:19:53;;;;;;;6.67;2.43;;;;;;;;;;5023975;23;20492;-69
2021/07/29 02:22:19;;;;;;;4.07;2.50;;;;;;;;;;4995059;28;20893;-69
2021/07/29 02:24:45;;;;;;;4.00;2.60;;;;;;;;;;4994698;28;20783;-69
2021/07/29 02:27:11;;;;;;;3.73;2.47;;;;;;;;;;4994841;28;20417;-69
2021/07/29 02:29:38;;;;;;;3.10;2.23;;;;;;;;;;4994470;28;20937;-69
2021/07/29 02:32:04;;;;;;;4.23;2.70;;;;;;;;;;5009873;28;20496;-69
2021/07/29 02:34:30;;;;;;;3.87;2.47;;;;;;;;;;4988373;28;20452;-69
2021/07/29 02:36:56;;;;;;;5.07;2.63;;;;;;;;;;4975359;28;20764;-69
2021/07/29 02:39:22;;;;;;;7.07;2.60;;;;;;;;;;4982381;28;20445;-69
2021/07/29 02:41:48;;;;;;;3.83;2.93;;;;;;;;;;4976243;28;20454;-69
2021/07/29 02:44:15;;;;;;;3.20;2.80;;;;;;;;;;4979066;28;20798;-69
2021/07/29 02:46:41;;;;;;;7.20;3.33;;;;;;;;;;4984695;28;21022;-69
2021/07/29 02:49:08;;;;;;;3.50;2.27;;;;;;;;;;4993951;28;20440;-69
2021/07/29 02:51:34;;;;;;;4.43;3.10;;;;;;;;;;4994421;28;20524;-69
2021/07/29 02:54:00;;;;;;;4.37;3.23;;;;;;;;;;5009070;28;20917;-69
2021/07/29 02:56:26;;;;;;;4.27;3.10;;;;;;;;;;4994489;28;20404;-69
2021/07/29 02:58:52;;;;;;;4.67;3.20;;;;;;;;;;4985797;28;20481;-69
2021/07/29 03:01:18;;;;;;;4.73;3.07;;;;;;;;;;4993234;28;20458;-69
2021/07/29 03:03:44;;;;;;;4.70;3.07;;;;;;;;;;4994307;28;20400;-69
2021/07/29 03:06:11;;;;;;;4.10;3.10;;;;;;;;;;4993988;28;20432;-69
2021/07/29 03:08:37;;;;;;;3.97;2.60;;;;;;;;;;5009307;28;20447;-69
2021/07/29 03:11:03;;;;;;;4.07;2.73;;;;;;;;;;4993990;28;20448;-69
2021/07/29 03:13:29;;;;;;;4.20;3.10;;;;;;;;;;4994044;28;20835;-69
2021/07/29 03:15:55;;;;;;;3.33;2.53;;;;;;;;;;4996292;28;20440;-69
2021/07/29 03:18:21;;;;;;;3.40;2.07;;;;;;;;;;4988796;28;20948;-69
2021/07/29 03:20:47;;;;;;;3.60;2.23;;;;;;;;;;4986687;28;20465;-69
2021/07/29 03:23:14;;;;;;;2.90;2.20;;;;;;;;;;4975640;28;20425;-69
2021/07/29 03:25:40;;;;;;;3.80;2.20;;;;;;;;;;4988172;28;20487;-69
2021/07/29 03:28:06;;;;;;;3.40;2.23;;;;;;;;;;4995402;28;20800;-69
2021/07/29 03:30:32;;;;;;;3.90;2.47;;;;;;;;;;5008257;28;20951;-69
2021/07/29 03:32:58;;;;;;;3.33;2.50;;;;;;;;;;4992066;28;20433;-69
2021/07/29 03:35:25;;;;;;;2.67;2.03;;;;;;;;;;4992562;28;20439;-69
2021/07/29 03:37:51;;;;;;;4.07;2.40;;;;;;;;;;4992794;28;20428;-69
2021/07/29 03:40:17;;;;;;;3.40;2.17;;;;;;;;;;4979592;28;20469;-69
2021/07/29 03:42:43;;;;;;;3.13;2.07;;;;;;;;;;4974424;28;20504;-69
2021/07/29 03:45:09;;;;;;;3.30;2.03;;;;;;;;;;4982425;28;20783;-69
2021/07/29 03:47:35;;;;;;;2.73;2.27;;;;;;;;;;4994011;28;20496;-69
2021/07/29 03:50:01;;;;;;;3.33;2.20;;;;;;;;;;4987023;28;20456;-69
2021/07/29 03:52:27;;;;;;;4.10;2.10;;;;;;;;;;4974155;28;20406;-69
2021/07/29 03:54:53;;;;;;;3.67;2.60;;;;;;;;;;4979646;28;20428;-69
2021/07/29 03:57:22;;;;;;;3.20;2.37;;;;;;;;;;4993395;28;20413;-69
2021/07/29 03:59:48;;;;;;;3.80;2.43;;;;;;;;;;4988832;28;20457;-69
2021/07/29 04:02:14;;;;;;;4.57;2.43;;;;;;;;;;4974107;28;20390;-69
2021/07/29 04:04:41;;;;;;;4.60;2.53;;;;;;;;;;4974681;28;20800;-69
2021/07/29 04:07:07;;;;;;;4.57;3.00;;;;;;;;;;4986677;28;20911;-69
2021/07/29 04:09:34;;;;;;;3.27;2.10;;;;;;;;;;4993111;28;20420;-69
2021/07/29 04:12:01;;;;;;;4.10;2.50;;;;;;;;;;4993555;28;20447;-69
2021/07/29 04:14:27;;;;;;;3.33;2.17;;;;;;;;;;4996193;28;20897;-69
2021/07/29 04:16:53;;;;;;;5.93;2.37;;;;;;;;;;4978223;28;20905;-69
2021/07/29 04:19:20;;;;;;;2.90;2.37;;;;;;;;;;4977646;28;20445;-70
2021/07/29 04:21:46;;;;;;;3.90;2.50;;;;;;;;;;4996630;28;20468;-69
2021/07/29 04:24:12;;;;;;;3.13;2.30;;;;;;;;;;4997370;28;20404;-69
2021/07/29 04:26:40;;;;;;;4.23;2.30;;;;;;;;;;4979107;28;20440;-69
2021/07/29 04:29:06;;;;;;;4.67;2.87;;;;;;;;;;4977589;28;20906;-69
2021/07/29 04:31:32;;;;;;;3.40;2.30;;;;;;;;;;4993064;28;20436;-69
2021/07/29 04:33:58;;;;;;;5.50;3.13;;;;;;;;;;4977718;28;20952;-69
2021/07/29 04:36:24;;;;;;;7.77;2.07;;;;;;;;;;4992728;28;20452;-69
2021/07/29 04:38:50;;;;;;;2.77;1.97;;;;;;;;;;4996843;28;20933;-69
2021/07/29 04:41:16;;;;;;;3.50;2.47;;;;;;;;;;4995138;28;20526;-69
2021/07/29 04:43:42;;;;;;;6.10;2.40;;;;;;;;;;4996950;28;20401;-69
2021/07/29 04:46:08;;;;;;;3.80;2.07;;;;;;;;;;4993350;28;20417;-69
2021/07/29 04:48:34;;;;;;;4.43;2.03;;;;;;;;;;4996727;28;20917;-69
2021/07/29 04:51:04;;;;;;;5.97;2.83;;;;;;;;;;4985823;28;20439;-69
2021/07/29 04:53:31;;;;;;;4.00;2.30;;;;;;;;;;4987762;28;20442;-69
2021/07/29 04:55:57;;;;;;;3.60;2.63;;;;;;;;;;4993374;28;20869;-70
2021/07/29 04:58:23;;;;;;;4.53;2.80;;;;;;;;;;4977138;28;20421;-69
2021/07/29 05:00:49;;;;;;;3.77;2.50;;;;;;;;;;4991395;28;20456;-69
2021/07/29 05:03:15;;;;;;;3.77;2.60;;;;;;;;;;4996611;28;20488;-69
2021/07/29 05:05:41;;;;;;;4.90;2.63;;;;;;;;;;4996456;28;20420;-69
2021/07/29 05:08:07;;;;;;;3.63;2.33;;;;;;;;;;4996414;28;20410;-69
2021/07/29 05:10:33;;;;;;;4.63;2.33;;;;;;;;;;4996049;28;20849;-69
2021/07/29 05:12:59;;;;;;;4.77;2.47;;;;;;;;;;4996456;28;20776;-69
2021/07/29 05:15:25;;;;;;;3.10;2.10;;;;;;;;;;4995668;28;20443;-69
2021/07/29 05:17:54;;;;;;;3.87;2.20;;;;;;;;;;4996569;28;20420;-69
2021/07/29 05:20:21;;;;;;;3.60;2.23;;;;;;;;;;4996034;28;20549;-69
2021/07/29 05:22:47;;;;;;;2.53;1.93;;;;;;;;;;4996363;28;20525;-69
2021/07/29 05:25:18;;;;;;;8.10;2.77;;;;;;;;;;4995173;28;20427;-69
2021/07/29 05:27:44;;;;;;;3.43;1.90;;;;;;;;;;4996156;28;20900;-69
2021/07/29 05:30:10;;;;;;;2.93;2.10;;;;;;;;;;4995416;28;20456;-69
2021/07/29 05:32:36;;;;;;;3.80;2.30;;;;;;;;;;4995791;28;20425;-69
2021/07/29 05:35:02;;;;;;;5.73;3.00;;;;;;;;;;4995918;28;20416;-69
2021/07/29 05:37:28;;;;;;;3.40;2.20;;;;;;;;;;4977981;28;20564;-69
2021/07/29 05:39:54;;;;;;;3.80;2.30;;;;;;;;;;4976253;28;20876;-69
2021/07/29 05:42:23;;;;;;;2.87;2.07;;;;;;;;;;4976907;28;20465;-69
2021/07/29 05:44:49;;;;;;;3.33;2.10;;;;;;;;;;4976282;28;20823;-69
2021/07/29 05:47:15;;;;;;;3.17;2.20;;;;;;;;;;4989866;28;20939;-69
2021/07/29 05:49:41;;;;;;;5.53;3.10;;;;;;;;;;4996416;28;20416;-69
2021/07/29 05:52:07;;;;;;;6.33;3.43;;;;;;;;;;4995617;28;20471;-69
2021/07/29 05:54:33;;;;;;;6.50;3.40;;;;;;;;;;4995803;28;20401;-69
2021/07/29 05:56:59;;;;;;;6.40;2.87;;;;;;;;;;4983521;28;20784;-69
2021/07/29 05:59:25;;;;;;;3.93;2.27;;;;;;;;;;4976333;28;20509;-69
2021/07/29 06:01:51;;;;;;;4.80;3.00;;;;;;;;;;4976649;28;20954;-69
2021/07/29 06:04:17;;;;;;;5.67;2.13;;;;;;;;;;4976317;28;20409;-69
2021/07/29 06:06:43;;;;;;;4.03;2.30;;;;;;;;;;4984715;28;20943;-68
2021/07/29 06:09:09;;;;;;;2.80;2.10;;;;;;;;;;4995066;28;20452;-70
2021/07/29 06:11:35;;;;;;;3.67;2.50;;;;;;;;;;4995214;28;20424;-70
2021/07/29 06:14:02;;;;;;;7.13;2.73;;;;;;;;;;4995744;28;20400;-69
2021/07/29 06:16:29;;;;;;;3.10;2.03;;;;;;;;;;4988550;28;20892;-70
2021/07/29 06:21:30;;;;;;;3.23;2.37;;;;;;;;;;4982802;28;20471;-70
2021/07/29 06:23:57;;;;;;;5.43;2.30;;;;;;;;;;4995247;28;20409;-70
2021/07/29 06:26:23;;;;;;;4.97;2.00;;;;;;;;;;4994223;28;20433;-70
2021/07/29 06:28:49;;;;;;;4.57;3.10;;;;;;;;;;4995109;28;20511;-70
2021/07/29 06:31:15;;;;;;;8.73;2.53;;;;;;;;;;4994712;28;20463;-70
2021/07/29 06:33:41;;;;;;;6.63;2.90;;;;;;;;;;4995111;28;20404;-70
2021/07/29 06:36:07;;;;;;;3.87;2.70;;;;;;;;;;4994286;28;21066;-70
2021/07/29 06:38:33;;;;;;;4.53;2.80;;;;;;;;;;4995635;28;20494;-69
2021/07/29 06:40:59;;;;;;;3.80;2.07;;;;;;;;;;4994832;28;20483;-69
2021/07/29 06:43:25;;;;;;;3.67;2.20;;;;;;;;;;4994176;28;20431;-69
2021/07/29 06:45:51;;;;;;;6.17;3.00;;;;;;;;;;4994328;28;20443;-70
2021/07/29 06:48:17;;;;;;;4.20;2.97;;;;;;;;;;4984818;28;21011;-69
2021/07/29 06:50:44;;;;;;;6.33;2.63;;;;;;;;;;4994870;28;20788;-69
2021/07/29 06:53:10;;;;;;;3.00;2.30;;;;;;;;;;4989311;28;20433;-69
2021/07/29 06:55:36;;;;;;;3.37;2.23;;;;;;;;;;4988369;28;20845;-69
2021/07/29 06:58:02;;;;;;;3.60;2.47;;;;;;;;;;4983683;28;20421;-69
2021/07/29 07:00:29;;;;;;;3.50;2.47;;;;;;;;;;4983892;28;20991;-69
2021/07/29 07:02:55;;;;;;;3.73;2.30;;;;;;;;;;4987352;28;20658;-70
2021/07/29 07:05:21;;;;;;;4.80;2.47;;;;;;;;;;4985821;28;20476;-69
2021/07/29 07:07:47;;;;;;;4.47;2.40;;;;;;;;;;4986893;28;20483;-68
2021/07/29 07:10:13;;;;;;;6.37;2.10;;;;;;;;;;4981842;28;20780;-69
2021/07/29 07:12:39;;;;;;;4.07;2.37;;;;;;;;;;4990054;28;20482;-68
2021/07/29 07:15:05;;;;;;;4.30;2.20;;;;;;;;;;4996301;28;20758;-69
2021/07/29 07:17:31;;;;;;;6.00;3.00;;;;;;;;;;4985328;28;20468;-69
2021/07/29 07:20:01;;;;;;;4.70;2.30;;;;;;;;;;4991474;28;20486;-69
2021/07/29 07:22:27;;;;;;;3.70;2.90;;;;;;;;;;4993812;28;20439;-70
2021/07/29 07:24:53;;;;;;;4.13;2.83;;;;;;;;;;4997789;28;20403;-69
2021/07/29 07:27:19;;;;;;;4.10;2.63;;;;;;;;;;4999010;28;20571;-69
2021/07/29 07:29:45;;;;;;;3.60;2.57;;;;;;;;;;4993793;28;20440;-69
2021/07/29 07:32:11;;;;;;;3.67;2.97;;;;;;;;;;4990984;28;20547;-70
2021/07/29 07:34:37;;;;;;;3.23;2.40;;;;;;;;;;4987270;28;20455;-69
2021/07/29 07:37:03;;;;;;;3.90;2.93;;;;;;;;;;4996110;28;20920;-70
2021/07/29 07:39:30;;;;;;;3.17;2.30;;;;;;;;;;4992990;28;20471;-69
2021/07/29 07:41:56;;;;;;;3.00;2.47;;;;;;;;;;4989014;28;20471;-69
2021/07/29 07:44:22;;;;;;;4.00;2.40;;;;;;;;;;4996486;28;20940;-69
2021/07/29 07:46:49;;;;;;;4.33;2.23;;;;;;;;;;4994849;28;20467;-69
2021/07/29 07:49:15;;;;;;;3.63;2.70;;;;;;;;;;4991567;28;20478;-70
2021/07/29 07:51:42;;;;;;;3.77;2.50;;;;;;;;;;4992942;28;20791;-69
2021/07/29 07:54:08;;;;;;;3.73;2.27;;;;;;;;;;4993096;28;20412;-69
2021/07/29 07:56:35;;;;;;;4.13;2.40;;;;;;;;;;4992387;28;20508;-69
2021/07/29 07:59:01;;;;;;;4.90;2.37;;;;;;;;;;4992287;28;20436;-69
2021/07/29 08:01:27;;;;;;;3.33;2.50;;;;;;;;;;4999196;28;20525;-69
2021/07/29 08:03:53;;;;;;;5.13;2.80;;;;;;;;;;4989149;28;20520;-69
2021/07/29 08:06:19;;;;;;;3.83;2.63;;;;;;;;;;4994980;28;20936;-69
2021/07/29 08:08:45;;;;;;;12.37;2.10;;;;;;;;;;4993742;28;20583;-69
2021/07/29 08:11:12;;;;;;;4.90;2.47;;;;;;;;;;4995899;28;20488;-69
2021/07/29 08:13:38;;;;;;;3.30;2.37;;;;;;;;;;4989199;28;20420;-69
2021/07/29 08:16:06;;;;;;;3.90;2.70;;;;;;;;;;4991191;28;20428;-69
2021/07/29 08:18:32;;;;;;;4.23;3.00;;;;;;;;;;4990955;28;20460;-69
2021/07/29 08:20:59;;;;;;;4.50;2.50;;;;;;;;;;4990671;28;20809;-69
2021/07/29 08:23:27;;;;;;;4.13;2.63;;;;;;;;;;4993433;28;20436;-69
2021/07/29 08:25:53;;;;;;;3.60;2.47;;;;;;;;;;4992699;28;20423;-69
2021/07/29 08:28:19;;;;;;;3.60;2.80;;;;;;;;;;4990242;28;20444;-69
2021/07/29 08:30:45;;;;;;;6.93;2.83;;;;;;;;;;4998189;28;20769;-69
2021/07/29 08:33:12;;;;;;;3.13;2.43;;;;;;;;;;4991676;28;20415;-69
2021/07/29 08:35:38;;;;;;;3.53;2.60;;;;;;;;;;4988049;28;20769;-69
2021/07/29 08:38:05;;;;;;;4.70;2.60;;;;;;;;;;4992336;28;20428;-70
2021/07/29 08:40:32;;;;;;;4.30;2.93;;;;;;;;;;4992602;28;20518;-70
2021/07/29 08:42:58;;;;;;;3.93;3.00;;;;;;;;;;4987298;28;20443;-70
2021/07/29 08:45:25;;;;;;;4.53;2.87;;;;;;;;;;4990594;28;20446;-69
2021/07/29 08:47:55;;;;;;;3.43;2.67;;;;;;;;;;4987984;28;20453;-69
2021/07/29 08:50:22;;;;;;;3.70;2.60;;;;;;;;;;4989613;28;20440;-69
2021/07/29 08:52:50;;;;;;;5.50;2.87;;;;;;;;;;4997408;28;20461;-68
2021/07/29 08:55:16;;;;;;;4.20;2.77;;;;;;;;;;4993747;28;20447;-69
2021/07/29 08:57:42;;;;;;;5.00;3.43;;;;;;;;;;4995404;28;20435;-69
2021/07/29 09:00:12;;;;;;;5.50;3.00;;;;;;;;;;4993448;28;20451;-69
2021/07/29 09:02:38;;;;;;;4.37;3.30;;;;;;;;;;5001827;28;20935;-69
2021/07/29 09:05:07;;;;;;;3.47;2.93;;;;;;;;;;4996442;28;20504;-70
2021/07/29 09:07:33;;;;;;;4.80;3.47;;;;;;;;;;4992106;28;20544;-68
2021/07/29 09:10:00;;;;;;;3.70;2.90;;;;;;;;;;4993222;28;20896;-70
2021/07/29 09:12:26;;;;;;;5.20;3.37;;;;;;;;;;4989647;28;20448;-69
2021/07/29 09:14:55;;;;;;;4.23;2.97;;;;;;;;;;4994463;28;20458;-69
2021/07/29 09:17:22;;;;;;;5.57;3.17;;;;;;;;;;4992647;28;20759;-69
2021/07/29 09:19:49;;;;;;;6.83;3.00;;;;;;;;;;4978338;28;20680;-68
2021/07/29 09:22:18;;;;;;;5.00;3.23;;;;;;;;;;4994448;28;20475;-69
2021/07/29 09:25:04;;;;;;;3.73;3.00;;;;;;;;;;4995036;28;20438;-69
2021/07/29 09:27:39;;;;;;;4.43;3.20;;;;;;;;;;4996668;28;20466;-69
2021/07/29 09:30:12;;;;;;;4.27;3.30;;;;;;;;;;4992100;28;20844;-69
2021/07/29 09:32:50;;;;;;;4.20;2.93;;;;;;;;;;4994880;28;20428;-69
2021/07/29 09:35:32;;;;;;;4.90;3.17;;;;;;;;;;4989839;28;20810;-69
2021/07/29 09:38:24;;;;;;;5.33;3.20;;;;;;;;;;4994250;28;20510;-69
2021/07/29 09:40:50;;;;;;;10.63;3.20;;;;;;;;;;4990748;28;20777;-69
2021/07/29 09:43:18;;;;;;;7.93;3.63;;;;;;;;;;4993889;28;20436;-70
2021/07/29 09:45:45;;;;;;;4.30;3.90;;;;;;;;;;4994834;28;20409;-69
2021/07/29 09:48:11;;;;;;;4.90;3.03;;;;;;;;;;4994429;28;20523;-68
2021/07/29 09:50:38;;;;;;;7.70;3.57;;;;;;;;;;4994473;28;20416;-69
2021/07/29 09:53:05;;;;;;;4.10;2.90;;;;;;;;;;4993034;28;20440;-68
2021/07/29 09:55:32;;;;;;;3.60;3.00;;;;;;;;;;4995008;28;20424;-69
2021/07/29 09:58:01;;;;;;;3.77;2.97;;;;;;;;;;4993038;28;20419;-69
2021/07/29 10:00:28;;;;;;;4.13;3.13;;;;;;;;;;4993140;28;20479;-69
2021/07/29 10:02:54;;;;;;;5.87;3.50;;;;;;;;;;4993825;28;20423;-69
2021/07/29 10:05:25;;;;;;;5.60;3.90;;;;;;;;;;4994122;28;20475;-69
2021/07/29 10:07:52;;;;;;;4.40;3.47;;;;;;;;;;4993849;28;20488;-69
2021/07/29 10:10:22;;;;;;;5.73;3.80;;;;;;;;;;4993142;28;20462;-69
2021/07/29 10:12:49;;;;;;;5.90;3.37;;;;;;;;;;4992099;28;20436;-69
2021/07/29 10:15:34;;;;;;;5.97;4.57;;;;;;;;;;4989860;28;20785;-69
2021/07/29 10:18:03;;;;;;;7.50;3.50;;;;;;;;;;4986575;28;20574;-70
2021/07/29 10:20:32;;;;;;;5.20;3.40;;;;;;;;;;4989194;28;20463;-69
2021/07/29 10:23:14;;;;;;;4.90;3.50;;;;;;;;;;4993478;28;20416;-69
2021/07/29 10:25:52;;;;;;;5.33;4.13;;;;;;;;;;4991164;28;20416;-69
2021/07/29 10:28:22;;;;;;;4.90;3.90;;;;;;;;;;4989830;28;20462;-69
2021/07/29 10:31:00;;;;;;;3.80;3.00;;;;;;;;;;4993617;28;20905;-69
2021/07/29 10:33:30;;;;;;;6.50;4.17;;;;;;;;;;4990963;28;20433;-69
2021/07/29 10:35:56;;;;;;;5.60;3.80;;;;;;;;;;4989619;28;20493;-69
2021/07/29 10:38:38;;;;;;;6.60;3.10;;;;;;;;;;4992443;28;20945;-69
2021/07/29 10:41:06;;;;;;;3.67;2.97;;;;;;;;;;4992392;28;20468;-69
2021/07/29 10:43:32;;;;;;;4.60;3.27;;;;;;;;;;4988021;28;20444;-68
2021/07/29 10:46:01;;;;;;;4.50;3.40;;;;;;;;;;4990582;28;20505;-69
2021/07/29 10:48:40;;;;;;;5.20;3.33;;;;;;;;;;4991647;28;20462;-69
2021/07/29 10:51:13;;;;;;;4.53;3.60;;;;;;;;;;4985010;28;20411;-69
2021/07/29 10:53:40;;;;;;;6.87;3.97;;;;;;;;;;4989248;28;20434;-69
2021/07/29 10:56:09;;;;;;;8.50;6.40;;;;;;;;;;4993175;28;20420;-69
2021/07/29 10:58:40;;;;;;;4.77;3.70;;;;;;;;;;4990457;28;20490;-69
2021/07/29 11:01:06;;;;;;;6.40;3.77;;;;;;;;;;4992969;28;20801;-68
2021/07/29 11:03:32;;;;;;;5.50;4.60;;;;;;;;;;4988632;28;20425;-69
2021/07/29 11:06:09;;;;;;;5.50;3.63;;;;;;;;;;4989838;28;20420;-69
2021/07/29 11:08:36;;;;;;;5.20;3.50;;;;;;;;;;4981597;28;20792;-69
2021/07/29 11:11:03;;;;;;;4.50;3.90;;;;;;;;;;4993894;28;20416;-69
2021/07/29 11:13:29;;;;;;;3.93;3.53;;;;;;;;;;4990707;28;20420;-69
2021/07/29 11:15:57;;;;;;;3.87;3.23;;;;;;;;;;4990290;28;20999;-69
2021/07/29 11:18:23;;;;;;;5.73;4.83;;;;;;;;;;4991571;28;20488;-69
2021/07/29 11:20:49;;;;;;;3.83;3.30;;;;;;;;;;4991729;28;20530;-69
2021/07/29 11:23:32;;;;;;;4.90;3.23;;;;;;;;;;4991439;28;20427;-69
2021/07/29 11:26:02;;;;;;;3.67;3.30;;;;;;;;;;4987294;28;20451;-69
2021/07/29 11:28:28;;;;;;;7.43;3.90;;;;;;;;;;4991342;28;20502;-69
2021/07/29 11:30:55;;;;;;;5.87;3.77;;;;;;;;;;4988189;28;20494;-69
2021/07/29 11:33:25;;;;;;;4.97;3.40;;;;;;;;;;4982468;28;20844;-69
2021/07/29 11:35:51;;;;;;;3.90;3.20;;;;;;;;;;4991063;28;20416;-69
2021/07/29 11:38:19;;;;;;;6.37;3.80;;;;;;;;;;4991912;28;20454;-69
2021/07/29 11:40:45;;;;;;;6.43;4.17;;;;;;;;;;4991983;28;20984;-68
2021/07/29 11:43:25;;;;;;;4.50;3.37;;;;;;;;;;4991937;28;20447;-68
2021/07/29 11:45:52;;;;;;;3.80;3.40;;;;;;;;;;4996610;28;20452;-68
2021/07/29 11:48:24;;;;;;;4.67;3.43;;;;;;;;;;4988086;28;20452;-69
2021/07/29 11:50:52;;;;;;;4.33;3.33;;;;;;;;;;4983776;28;20425;-68
2021/07/29 11:53:21;;;;;;;4.97;3.70;;;;;;;;;;4989466;28;20439;-69
2021/07/29 11:55:54;;;;;;;6.00;3.57;;;;;;;;;;4992444;28;20435;-69
2021/07/29 11:58:21;;;;;;;5.57;4.37;;;;;;;;;;4986395;28;20507;-68
2021/07/29 12:00:48;;;;;;;6.13;4.23;;;;;;;;;;4990320;28;21315;-69
2021/07/29 12:03:32;;;;;;;4.70;3.80;;;;;;;;;;4992628;28;20486;-69
2021/07/29 12:05:59;;;;;;;6.30;3.57;;;;;;;;;;4986379;28;20990;-68
2021/07/29 12:08:25;;;;;;;5.00;3.50;;;;;;;;;;4988619;28;20435;-69
2021/07/29 12:10:53;;;;;;;4.37;3.00;;;;;;;;;;4988291;28;20431;-68
2021/07/29 12:13:20;;;;;;;5.37;3.53;;;;;;;;;;4988361;28;20786;-68
2021/07/29 12:15:50;;;;;;;5.03;4.23;;;;;;;;;;4989467;28;20432;-69
2021/07/29 12:18:18;;;;;;;4.00;3.03;;;;;;;;;;4992210;28;20455;-69
2021/07/29 12:20:44;;;;;;;3.50;3.10;;;;;;;;;;4990138;28;20455;-69
2021/07/29 12:23:11;;;;;;;4.30;3.60;;;;;;;;;;4992518;28;20409;-69
2021/07/29 12:25:38;;;;;;;4.30;3.33;;;;;;;;;;4990056;28;20754;-69
2021/07/29 12:28:04;;;;;;;5.07;3.00;;;;;;;;;;5006515;28;20420;-68
2021/07/29 12:30:41;;;;;;;4.00;3.10;;;;;;;;;;4987896;28;20797;-69
2021/07/29 12:33:12;;;;;;;4.80;3.53;;;;;;;;;;4984556;28;20786;-69
2021/07/29 12:35:38;;;;;;;5.67;3.57;;;;;;;;;;4988080;28;20426;-68
2021/07/29 12:38:05;;;;;;;4.20;3.53;;;;;;;;;;4995762;28;20439;-69
2021/07/29 12:40:32;;;;;;;4.77;3.63;;;;;;;;;;4993817;28;20794;-68
2021/07/29 12:43:20;;;;;;;4.10;3.23;;;;;;;;;;4995952;28;20420;-68
2021/07/29 12:45:53;;;;;;;4.47;3.43;;;;;;;;;;4995265;28;20431;-69
2021/07/29 12:48:20;;;;;;;5.03;3.97;;;;;;;;;;4995963;28;20923;-68
2021/07/29 12:50:46;;;;;;;6.33;3.53;;;;;;;;;;4994169;28;20432;-69
2021/07/29 12:53:13;;;;;;;3.90;3.27;;;;;;;;;;4996071;28;20420;-69
2021/07/29 12:55:40;;;;;;;4.37;3.50;;;;;;;;;;4989695;28;20432;-69
2021/07/29 12:58:07;;;;;;;6.17;3.23;;;;;;;;;;4995143;28;20420;-68
2021/07/29 13:00:33;;;;;;;4.10;3.70;;;;;;;;;;4987402;28;20515;-68
2021/07/29 13:02:59;;;;;;;4.93;3.70;;;;;;;;;;4994604;28;20416;-68
2021/07/29 13:05:25;;;;;;;4.70;3.30;;;;;;;;;;4994749;28;20430;-69
2021/07/29 13:07:53;;;;;;;3.53;2.90;;;;;;;;;;4995282;28;20770;-68
2021/07/29 13:10:19;;;;;;;5.40;3.60;;;;;;;;;;4991335;28;20832;-68
2021/07/29 13:12:47;;;;;;;4.00;3.30;;;;;;;;;;4993161;28;20486;-69
2021/07/29 13:15:13;;;;;;;5.07;3.07;;;;;;;;;;4994420;28;20774;-69
2021/07/29 13:17:40;;;;;;;4.47;3.00;;;;;;;;;;4992827;28;21014;-68
2021/07/29 13:20:06;;;;;;;4.30;3.63;;;;;;;;;;4991437;28;20467;-69
2021/07/29 13:22:32;;;;;;;4.33;2.80;;;;;;;;;;4994271;28;20413;-69
2021/07/29 13:24:59;;;;;;;4.40;3.40;;;;;;;;;;4993726;28;20428;-69
2021/07/29 13:27:25;;;;;;;5.27;3.87;;;;;;;;;;4995164;28;20455;-69
2021/07/29 13:29:51;;;;;;;7.00;3.37;;;;;;;;;;4995255;28;20436;-69
2021/07/29 13:32:17;;;;;;;3.87;3.10;;;;;;;;;;4993813;28;20424;-69
2021/07/29 13:34:45;;;;;;;3.90;3.40;;;;;;;;;;4993350;28;20443;-68
2021/07/29 13:37:11;;;;;;;4.83;3.50;;;;;;;;;;4990558;28;20506;-69
2021/07/29 13:39:38;;;;;;;4.73;3.47;;;;;;;;;;4992743;28;20440;-69
2021/07/29 13:42:04;;;;;;;5.37;3.23;;;;;;;;;;4994172;28;20551;-69
2021/07/29 13:44:30;;;;;;;4.13;3.20;;;;;;;;;;4989251;28;20451;-69
2021/07/29 13:46:56;;;;;;;4.23;3.20;;;;;;;;;;4992851;28;20456;-69
2021/07/29 13:49:22;;;;;;;9.07;3.57;;;;;;;;;;4995198;28;20481;-69
2021/07/29 13:51:48;;;;;;;3.87;2.97;;;;;;;;;;4991911;28;20436;-69
2021/07/29 13:54:15;;;;;;;4.43;3.77;;;;;;;;;;4992948;28;20436;-69
2021/07/29 13:56:41;;;;;;;3.90;3.20;;;;;;;;;;4989117;28;20440;-69
2021/07/29 13:59:07;;;;;;;7.13;3.40;;;;;;;;;;4994698;28;20451;-69
2021/07/29 14:01:34;;;;;;;5.20;3.67;;;;;;;;;;4991567;28;20463;-69
2021/07/29 14:04:00;;;;;;;6.53;3.40;;;;;;;;;;4993228;28;20428;-69
2021/07/29 14:06:26;;;;;;;4.30;3.20;;;;;;;;;;4991018;28;20957;-69
2021/07/29 14:08:52;;;;;;;5.23;3.40;;;;;;;;;;4994147;28;20523;-69
2021/07/29 14:11:21;;;;;;;6.60;4.00;;;;;;;;;;5008538;28;20464;-69
2021/07/29 14:13:47;;;;;;;4.17;3.30;;;;;;;;;;4994011;28;20436;-70
2021/07/29 14:16:14;;;;;;;4.60;3.33;;;;;;;;;;4993341;28;20442;-70
2021/07/29 14:18:44;;;;;;;4.73;3.80;;;;;;;;;;4993852;28;20558;-68
2021/07/29 14:21:12;;;;;;;4.00;3.47;;;;;;;;;;4992390;28;20467;-69
2021/07/29 14:23:38;;;;;;;4.40;3.97;;;;;;;;;;4989596;28;20483;-69
2021/07/29 14:26:04;;;;;;;6.10;3.63;;;;;;;;;;4993270;28;20503;-69
2021/07/29 14:28:30;;;;;;;9.00;3.67;;;;;;;;;;4994488;28;20440;-69
2021/07/29 14:30:56;;;;;;;4.60;3.60;;;;;;;;;;4992588;28;20432;-69
2021/07/29 14:33:23;;;;;;;4.00;3.00;;;;;;;;;;4993880;28;20427;-70
2021/07/29 14:35:50;;;;;;;4.37;2.90;;;;;;;;;;4992529;28;20428;-69
2021/07/29 14:38:16;;;;;;;6.57;4.10;;;;;;;;;;4993416;28;20448;-69
2021/07/29 14:40:42;;;;;;;3.80;3.10;;;;;;;;;;4990540;28;20462;-69
2021/07/29 14:43:10;;;;;;;4.37;3.00;;;;;;;;;;4993917;28;20471;-68
2021/07/29 14:45:47;;;;;;;5.10;3.77;;;;;;;;;;4990814;28;20421;-68
2021/07/29 14:50:58;;;;;;;5.60;3.50;;;;;;;;;;4990897;28;21011;-67